Time;durP1;ratioP1;P1;durP2;ratioP2;P2;SDS_P1;SDS_P2;PMS_P1;PMS_P2;Temp;Humidity;BMP_temperature;BMP_pressure;BME280_temperature;BME280_humidity;BME280_pressure;Samples;Min_cycle;Max_cycle;Signal;HPM_P1;HPM_P2
2023/08/30 00:01:14;;;;;;;14.50;9.60;;;;;;;26.01;91.17;100020.48;110127;1237;74066;-69
2023/08/30 00:03:43;;;;;;;9.90;8.90;;;;;;;26.01;91.24;100016.77;110133;1239;58350;-69
2023/08/30 00:06:12;;;;;;;11.90;9.60;;;;;;;26.00;91.24;100018.79;110150;1238;58215;-72
2023/08/30 00:08:41;;;;;;;12.10;9.20;;;;;;;25.94;91.32;100016.95;110191;1237;64228;-69
2023/08/30 00:11:09;;;;;;;14.30;9.60;;;;;;;25.94;91.32;100020.14;110136;1238;63086;-69
2023/08/30 00:13:38;;;;;;;18.30;11.90;;;;;;;25.95;91.37;100014.70;110117;1237;69932;-69
2023/08/30 00:16:07;;;;;;;19.20;16.20;;;;;;;25.89;91.57;100016.23;110119;1239;62784;-67
2023/08/30 00:18:36;;;;;;;15.30;9.70;;;;;;;25.84;91.75;100020.16;110098;1239;58347;-69
2023/08/30 00:21:06;;;;;;;13.30;9.60;;;;;;;25.80;92.18;100019.35;110043;1237;61089;-69
2023/08/30 00:23:35;;;;;;;10.80;9.30;;;;;;;25.78;92.08;100017.41;110105;1239;63400;-69
2023/08/30 00:26:04;;;;;;;14.00;9.00;;;;;;;25.73;92.24;100015.60;110127;1239;71386;-70
2023/08/30 00:28:34;;;;;;;10.40;8.80;;;;;;;25.69;91.98;100012.55;110093;1239;60273;-69
2023/08/30 00:31:03;;;;;;;12.50;9.00;;;;;;;25.70;91.94;100013.16;109713;1244;64358;-70
2023/08/30 00:33:31;;;;;;;12.60;9.70;;;;;;;25.77;91.90;100008.11;110036;1241;61356;-71
2023/08/30 00:36:00;;;;;;;13.00;9.60;;;;;;;25.84;91.27;100004.32;110034;1239;58163;-70
2023/08/30 00:38:29;;;;;;;14.90;9.30;;;;;;;25.93;90.34;100002.09;110020;1238;63524;-69
2023/08/30 00:40:58;;;;;;;11.70;9.10;;;;;;;26.01;89.78;100005.34;109949;1239;60982;-69
2023/08/30 00:43:27;;;;;;;10.70;9.10;;;;;;;26.08;89.32;100002.77;109900;1238;70398;-69
2023/08/30 00:45:56;;;;;;;11.60;9.20;;;;;;;26.12;89.10;100003.69;109986;1237;74121;-69
2023/08/30 00:48:25;;;;;;;15.00;8.90;;;;;;;26.12;89.11;100003.86;110085;1238;61986;-69
2023/08/30 00:50:53;;;;;;;10.30;8.30;;;;;;;26.08;89.37;100005.60;110044;1238;61386;-70
2023/08/30 00:53:23;;;;;;;11.00;8.70;;;;;;;26.07;89.18;100002.49;109993;1238;63351;-69
2023/08/30 00:55:52;;;;;;;13.90;8.60;;;;;;;26.04;88.92;100001.13;109848;1238;72198;-69
2023/08/30 00:58:21;;;;;;;11.40;8.80;;;;;;;26.09;88.87;100002.14;110123;1238;61930;-70
2023/08/30 01:00:50;;;;;;;11.60;8.80;;;;;;;26.04;89.49;100003.52;110006;1238;74496;-70
2023/08/30 01:03:21;;;;;;;12.10;9.10;;;;;;;25.91;90.26;100007.88;110101;1239;60493;-71
2023/08/30 01:05:50;;;;;;;10.70;9.20;;;;;;;25.80;91.00;100012.31;110066;1238;58174;-70
2023/08/30 01:08:19;;;;;;;12.60;8.60;;;;;;;25.71;91.53;100011.35;110192;1238;63735;-70
2023/08/30 01:11:05;;;;;;;13.50;9.10;;;;;;;25.61;92.62;100011.48;110179;1237;72210;-70
2023/08/30 01:13:40;;;;;;;14.10;9.80;;;;;;;25.44;93.71;100005.94;110034;1238;60334;-72
2023/08/30 01:16:09;;;;;;;14.60;9.60;;;;;;;25.27;95.15;100002.05;110018;1238;63144;-71
2023/08/30 01:18:40;;;;;;;10.40;9.30;;;;;;;25.14;96.01;100001.18;110044;1239;60360;-70
2023/08/30 01:21:21;;;;;;;11.40;8.60;;;;;;;25.01;96.10;100005.23;110022;1238;60588;-70
2023/08/30 01:24:02;;;;;;;11.40;9.70;;;;;;;24.87;97.68;100007.54;109967;1241;63412;-70
2023/08/30 01:27:10;;;;;;;14.90;11.10;;;;;;;24.74;98.41;100003.55;109934;1238;60856;-70
2023/08/30 01:29:43;;;;;;;13.90;9.40;;;;;;;24.53;99.54;100001.95;109788;1238;60112;-67
2023/08/30 01:32:12;;;;;;;14.50;10.30;;;;;;;24.50;99.78;100009.94;110044;1238;71884;-69
2023/08/30 01:34:45;;;;;;;12.70;9.90;;;;;;;24.42;100.00;100008.36;109981;1241;58471;-69
2023/08/30 01:37:15;;;;;;;16.20;10.60;;;;;;;24.39;100.00;100013.59;109902;1237;58308;-68
2023/08/30 01:39:46;;;;;;;11.00;9.60;;;;;;;24.35;100.00;100013.63;110022;1241;62964;-68
2023/08/30 01:42:15;;;;;;;12.40;10.20;;;;;;;24.34;100.00;100018.59;109918;1238;61455;-68
2023/08/30 01:44:44;;;;;;;12.50;9.80;;;;;;;24.23;100.00;100019.91;109847;1237;70431;-69
2023/08/30 01:47:16;;;;;;;15.40;11.00;;;;;;;24.23;100.00;100020.77;110116;1238;73995;-69
2023/08/30 01:49:45;;;;;;;14.10;10.00;;;;;;;24.25;100.00;100018.04;109954;1241;61626;-69
2023/08/30 01:52:15;;;;;;;13.20;9.90;;;;;;;24.26;100.00;100019.34;109866;1238;57803;-68
2023/08/30 01:54:46;;;;;;;12.50;10.10;;;;;;;24.26;100.00;100017.25;109924;1239;63034;-69
2023/08/30 01:57:15;;;;;;;12.40;9.60;;;;;;;24.27;100.00;100014.25;109740;1238;61669;-69
2023/08/30 01:59:44;;;;;;;11.10;9.30;;;;;;;24.32;100.00;100020.08;109843;1238;70375;-69
2023/08/30 02:02:12;;;;;;;13.90;11.00;;;;;;;24.42;99.74;100019.83;109731;1241;74167;-70
2023/08/30 02:04:41;;;;;;;16.20;10.50;;;;;;;24.49;99.28;100022.02;109751;1238;61320;-69
2023/08/30 02:07:20;;;;;;;11.10;9.50;;;;;;;24.52;99.28;100016.58;110022;1238;58593;-70
2023/08/30 02:09:55;;;;;;;13.20;9.40;;;;;;;24.63;98.01;100015.38;109877;1238;74356;-70
2023/08/30 02:12:31;;;;;;;14.30;10.20;;;;;;;24.62;98.08;100018.75;110045;1238;61087;-70
2023/08/30 02:15:01;;;;;;;13.60;9.20;;;;;;;24.66;98.13;100025.61;109814;1238;59032;-70
2023/08/30 02:17:30;;;;;;;15.00;9.90;;;;;;;24.60;97.83;100024.93;109883;1238;63745;-71
2023/08/30 02:19:59;;;;;;;12.70;10.00;;;;;;;24.42;99.83;100029.17;109786;1238;58343;-69
2023/08/30 02:22:30;;;;;;;14.40;10.40;;;;;;;24.27;100.00;100028.77;109756;1241;58330;-68
2023/08/30 02:25:04;;;;;;;12.80;9.80;;;;;;;24.19;100.00;100029.79;109766;1238;64240;-69
2023/08/30 02:27:34;;;;;;;13.80;10.40;;;;;;;24.15;100.00;100031.83;109756;1242;72009;-69
2023/08/30 02:30:04;;;;;;;11.20;9.70;;;;;;;24.01;100.00;100029.73;109929;1238;60241;-69
2023/08/30 02:32:33;;;;;;;15.20;10.10;;;;;;;23.93;100.00;100025.81;109731;1242;73886;-69
2023/08/30 02:35:02;;;;;;;12.80;10.70;;;;;;;23.90;100.00;100032.07;110046;1238;62323;-70
2023/08/30 02:37:30;;;;;;;12.00;9.50;;;;;;;23.78;100.00;100026.14;109897;1238;60779;-71
2023/08/30 02:40:00;;;;;;;15.50;11.40;;;;;;;23.78;100.00;100036.27;109930;1238;64015;-71
2023/08/30 02:42:29;;;;;;;12.80;10.70;;;;;;;23.70;100.00;100036.31;109870;1237;60954;-69
2023/08/30 02:44:58;;;;;;;12.20;9.80;;;;;;;23.65;100.00;100036.26;110075;1238;59775;-69
2023/08/30 02:47:27;;;;;;;14.70;11.00;;;;;;;23.65;100.00;100031.33;110044;1239;73812;-69
2023/08/30 02:49:55;;;;;;;13.20;10.70;;;;;;;23.64;100.00;100030.17;110021;1238;62513;-69
2023/08/30 02:52:25;;;;;;;14.00;11.00;;;;;;;23.57;100.00;100029.73;109909;1237;58288;-69
2023/08/30 02:54:54;;;;;;;13.40;10.80;;;;;;;23.50;100.00;100027.92;109939;1238;62959;-69
2023/08/30 02:57:23;;;;;;;14.90;11.40;;;;;;;23.41;100.00;100018.37;110007;1238;72174;-69
2023/08/30 02:59:52;;;;;;;13.30;10.80;;;;;;;23.45;100.00;100026.02;109998;1238;70598;-68
2023/08/30 03:02:20;;;;;;;15.00;10.90;;;;;;;23.42;100.00;100028.33;109914;1238;64165;-69
2023/08/30 03:04:49;;;;;;;14.60;10.90;;;;;;;23.42;100.00;100028.00;109909;1238;57799;-69
2023/08/30 03:07:18;;;;;;;14.40;10.20;;;;;;;23.45;100.00;100030.16;109912;1238;58334;-69
2023/08/30 03:09:52;;;;;;;13.20;10.10;;;;;;;23.59;100.00;100032.82;109806;1238;63548;-69
2023/08/30 03:12:21;;;;;;;16.20;11.70;;;;;;;23.62;100.00;100033.48;109850;1238;72159;-68
2023/08/30 03:14:50;;;;;;;12.70;10.00;;;;;;;23.67;100.00;100032.10;109862;1238;60601;-68
2023/08/30 03:17:19;;;;;;;14.90;11.00;;;;;;;23.70;100.00;100032.12;109878;1238;62630;-70
2023/08/30 03:19:48;;;;;;;15.40;10.60;;;;;;;23.70;100.00;100038.28;109826;1238;62917;-69
2023/08/30 03:22:17;;;;;;;15.40;11.90;;;;;;;23.69;100.00;100041.44;109738;1241;57668;-70
2023/08/30 03:24:46;;;;;;;13.90;11.40;;;;;;;23.73;100.00;100045.50;109889;1237;74400;-69
2023/08/30 03:27:16;;;;;;;16.00;10.80;;;;;;;23.67;100.00;100045.56;109811;1237;71357;-70
2023/08/30 03:29:45;;;;;;;19.50;14.60;;;;;;;23.61;100.00;100047.45;109859;1238;60156;-70
2023/08/30 03:32:20;;;;;;;17.10;10.90;;;;;;;23.57;100.00;100045.77;109830;1237;62994;-68
2023/08/30 03:34:49;;;;;;;16.10;11.30;;;;;;;23.60;100.00;100044.58;109833;1240;57822;-69
2023/08/30 03:37:18;;;;;;;18.10;12.30;;;;;;;23.61;100.00;100047.28;110001;1237;61715;-70
2023/08/30 03:39:47;;;;;;;18.60;11.10;;;;;;;23.58;100.00;100049.51;109818;1237;64786;-69
2023/08/30 03:42:16;;;;;;;13.40;10.50;;;;;;;23.57;100.00;100053.08;109824;1237;61560;-69
2023/08/30 03:44:45;;;;;;;12.70;11.10;;;;;;;23.55;100.00;100057.89;109930;1238;69859;-70
2023/08/30 03:47:13;;;;;;;14.00;10.30;;;;;;;23.53;100.00;100060.68;109855;1237;74179;-69
2023/08/30 03:49:44;;;;;;;17.60;11.80;;;;;;;23.43;100.00;100064.81;109975;1238;57895;-70
2023/08/30 03:52:14;;;;;;;18.40;12.70;;;;;;;23.34;100.00;100063.95;109982;1238;60436;-69
2023/08/30 03:54:43;;;;;;;14.70;12.40;;;;;;;23.33;100.00;100068.33;109954;1240;63329;-69
2023/08/30 03:57:12;;;;;;;19.90;11.10;;;;;;;23.43;100.00;100070.83;110012;1237;72141;-70
2023/08/30 03:59:40;;;;;;;14.10;11.00;;;;;;;23.51;100.00;100066.75;109982;1237;70854;-69
2023/08/30 04:02:09;;;;;;;17.30;11.30;;;;;;;23.54;100.00;100069.38;110019;1237;74362;-73
2023/08/30 04:04:38;;;;;;;17.20;12.00;;;;;;;23.54;100.00;100067.57;109982;1237;57847;-68
2023/08/30 04:07:07;;;;;;;14.70;10.90;;;;;;;23.55;100.00;100074.04;109978;1238;60358;-69
2023/08/30 04:09:36;;;;;;;18.30;12.50;;;;;;;23.56;100.00;100071.98;109921;1238;64167;-69
2023/08/30 04:12:05;;;;;;;16.60;11.70;;;;;;;23.65;100.00;100077.55;109888;1239;62132;-69
2023/08/30 04:14:34;;;;;;;17.20;11.50;;;;;;;23.74;100.00;100080.63;109920;1238;60250;-69
2023/08/30 04:17:04;;;;;;;14.00;10.80;;;;;;;23.82;100.00;100082.48;109846;1238;73962;-69
2023/08/30 04:19:35;;;;;;;15.20;10.50;;;;;;;23.85;100.00;100083.58;109970;1238;58661;-70
2023/08/30 04:22:04;;;;;;;17.20;10.70;;;;;;;23.87;100.00;100087.67;109994;1237;57639;-70
2023/08/30 04:24:32;;;;;;;16.80;11.20;;;;;;;23.88;100.00;100091.73;110072;1237;74569;-71
2023/08/30 04:27:01;;;;;;;20.80;11.50;;;;;;;23.88;100.00;100094.65;109986;1237;61839;-70
2023/08/30 04:29:30;;;;;;;15.40;10.60;;;;;;;23.87;100.00;100091.73;109983;1239;59185;-69
2023/08/30 04:31:59;;;;;;;13.00;10.50;;;;;;;23.91;100.00;100098.86;109974;1237;73674;-70
2023/08/30 04:34:29;;;;;;;16.30;11.10;;;;;;;23.95;100.00;100095.23;109951;1240;63525;-70
2023/08/30 04:36:58;;;;;;;15.80;11.20;;;;;;;24.01;100.00;100090.35;109985;1237;60626;-71
2023/08/30 04:39:28;;;;;;;13.20;10.20;;;;;;;24.15;100.00;100094.70;109873;1237;74673;-71
2023/08/30 04:41:57;;;;;;;14.70;11.10;;;;;;;24.27;100.00;100097.55;109970;1238;72528;-70
2023/08/30 04:44:27;;;;;;;17.90;11.00;;;;;;;24.39;100.00;100098.10;109982;1238;61284;-70
2023/08/30 04:46:56;;;;;;;18.40;11.20;;;;;;;24.51;100.00;100099.75;109984;1238;62792;-70
2023/08/30 04:49:25;;;;;;;12.80;11.10;;;;;;;24.70;100.00;100102.23;109972;1238;58575;-69
2023/08/30 04:51:54;;;;;;;17.50;10.90;;;;;;;24.89;100.00;100101.34;109973;1238;58252;-68
2023/08/30 04:54:23;;;;;;;14.40;10.50;;;;;;;25.00;100.00;100102.22;109902;1238;74100;-71
2023/08/30 04:56:52;;;;;;;18.30;11.40;;;;;;;25.07;100.00;100107.32;110007;1238;62118;-70
2023/08/30 04:59:24;;;;;;;;;;;;;;;25.17;100.00;100109.91;109981;1238;70755;-69
2023/08/30 05:01:53;;;;;;;17.20;10.20;;;;;;;25.23;100.00;100114.20;109993;1238;63377;-67
2023/08/30 05:04:24;;;;;;;16.30;10.50;;;;;;;25.32;100.00;100112.74;109875;1241;61093;-67
2023/08/30 05:06:54;;;;;;;18.40;11.50;;;;;;;25.36;100.00;100113.83;110008;1238;61868;-68
2023/08/30 05:09:24;;;;;;;15.90;11.30;;;;;;;25.37;100.00;100115.83;109618;1237;366311;-71
2023/08/30 05:11:54;;;;;;;17.50;11.80;;;;;;;25.41;100.00;100111.55;109991;1240;61609;-71
2023/08/30 05:14:23;;;;;;;17.20;10.10;;;;;;;25.46;100.00;100107.31;109766;1238;70269;-70
2023/08/30 05:16:51;;;;;;;20.80;11.40;;;;;;;25.45;100.00;100105.26;109839;1238;74505;-69
2023/08/30 05:19:21;;;;;;;17.00;11.00;;;;;;;25.45;100.00;100099.91;109814;1241;60001;-70
2023/08/30 05:21:54;;;;;;;19.80;10.40;;;;;;;25.50;100.00;100098.83;109882;1239;58276;-70
2023/08/30 05:24:23;;;;;;;18.10;11.10;;;;;;;25.51;100.00;100100.58;109966;1239;63564;-70
2023/08/30 05:26:52;;;;;;;17.50;10.10;;;;;;;25.55;100.00;100099.34;109773;1242;61442;-68
2023/08/30 05:29:23;;;;;;;20.40;10.70;;;;;;;25.55;100.00;100095.23;110033;1238;71011;-67
2023/08/30 05:31:52;;;;;;;15.40;10.90;;;;;;;25.61;100.00;100095.23;109953;1238;73513;-66
2023/08/30 05:34:37;;;;;;;20.60;11.60;;;;;;;25.65;100.00;100089.63;110096;1238;57876;-61
2023/08/30 05:37:15;;;;;;;16.30;11.40;;;;;;;25.84;100.00;100088.27;109946;1238;60486;-63
2023/08/30 05:39:57;;;;;;;17.50;10.90;;;;;;;25.98;100.00;100091.91;109801;1237;65952;-67
2023/08/30 05:42:26;;;;;;;19.80;11.60;;;;;;;26.15;100.00;100092.46;109686;1242;61135;-67
2023/08/30 05:44:57;;;;;;;17.70;11.40;;;;;;;26.33;100.00;100092.33;109989;1238;70401;-68
2023/08/30 05:47:26;;;;;;;16.80;10.70;;;;;;;26.45;99.84;100095.55;109817;1238;74824;-67
2023/08/30 05:49:54;;;;;;;15.30;11.00;;;;;;;26.60;99.78;100095.35;109906;1237;60740;-68
2023/08/30 05:52:25;;;;;;;22.20;11.90;;;;;;;26.70;99.48;100097.42;109907;1240;58320;-68
2023/08/30 05:54:54;;;;;;;16.80;11.30;;;;;;;26.86;98.30;100095.41;109947;1238;74181;-68
2023/08/30 05:57:24;;;;;;;13.10;10.00;;;;;;;27.11;97.04;100091.30;109941;1237;72520;-69
2023/08/30 05:59:53;;;;;;;13.90;10.70;;;;;;;27.11;97.54;100088.69;110047;1238;59323;-67
2023/08/30 06:02:22;;;;;;;21.20;11.70;;;;;;;27.30;96.82;100090.58;109938;1239;73749;-70
2023/08/30 06:04:50;;;;;;;18.00;11.20;;;;;;;27.35;96.03;100086.19;110036;1239;58428;-68
2023/08/30 06:07:19;;;;;;;17.90;11.40;;;;;;;27.31;96.50;100086.00;110061;1239;57785;-68
2023/08/30 06:09:49;;;;;;;13.30;10.10;;;;;;;27.37;96.71;100082.39;110062;1239;63602;-68
2023/08/30 06:12:18;;;;;;;17.80;10.60;;;;;;;27.52;96.02;100077.64;110081;1238;71365;-68
2023/08/30 06:14:51;;;;;;;21.70;11.50;;;;;;;27.62;95.06;100077.90;110063;1237;70775;-68
2023/08/30 06:17:20;;;;;;;19.70;10.50;;;;;;;27.69;93.98;100081.27;110023;1239;62946;-68
2023/08/30 06:19:49;;;;;;;19.30;10.90;;;;;;;27.69;94.54;100082.55;109969;1238;58317;-68
2023/08/30 06:22:18;;;;;;;17.00;10.80;;;;;;;27.62;95.62;100087.09;109963;1237;60356;-69
2023/08/30 06:24:46;;;;;;;17.90;10.60;;;;;;;27.71;95.07;100083.46;110045;1239;65206;-68
2023/08/30 06:27:15;;;;;;;13.50;10.00;;;;;;;27.70;95.60;100079.45;110085;1239;61591;-68
2023/08/30 06:29:44;;;;;;;12.30;9.90;;;;;;;27.82;94.56;100078.85;110097;1238;71151;-68
2023/08/30 06:32:12;;;;;;;13.60;9.20;;;;;;;27.78;95.26;100074.36;110036;1237;74111;-68
2023/08/30 06:34:41;;;;;;;12.00;9.50;;;;;;;27.86;94.82;100077.48;110068;1239;58170;-68
2023/08/30 06:37:10;;;;;;;13.10;8.90;;;;;;;28.02;94.37;100075.37;110048;1237;58099;-68
2023/08/30 06:39:39;;;;;;;12.50;8.90;;;;;;;28.08;94.58;100072.30;110009;1240;63627;-68
2023/08/30 06:42:08;;;;;;;13.50;9.30;;;;;;;27.95;95.37;100073.41;110173;1239;60634;-69
2023/08/30 06:44:37;;;;;;;12.90;9.40;;;;;;;28.15;94.78;100073.50;109795;1237;70796;-70
2023/08/30 06:47:06;;;;;;;14.90;9.10;;;;;;;28.21;94.71;100072.48;110033;1239;63581;-70
2023/08/30 06:49:35;;;;;;;15.00;9.50;;;;;;;28.19;95.11;100074.52;110066;1238;58300;-68
2023/08/30 06:52:04;;;;;;;16.50;9.60;;;;;;;28.25;94.93;100077.65;109989;1237;61071;-68
2023/08/30 06:54:35;;;;;;;13.50;9.60;;;;;;;28.41;93.77;100072.67;109885;1239;63998;-70
2023/08/30 06:57:06;;;;;;;11.70;9.10;;;;;;;28.56;93.86;100071.98;109904;1239;63106;-66
2023/08/30 06:59:35;;;;;;;17.80;9.70;;;;;;;28.53;94.62;100072.98;109803;1238;60608;-65
2023/08/30 07:02:04;;;;;;;14.00;9.30;;;;;;;28.67;93.76;100072.79;110048;1239;62217;-65
2023/08/30 07:04:33;;;;;;;14.10;9.10;;;;;;;28.80;93.11;100075.40;109819;1241;58330;-64
2023/08/30 07:07:02;;;;;;;14.90;9.00;;;;;;;28.89;92.04;100082.04;110036;1238;59747;-64
2023/08/30 07:09:32;;;;;;;12.60;8.80;;;;;;;28.87;92.45;100074.81;110078;1238;64206;-64
2023/08/30 07:12:01;;;;;;;10.40;8.10;;;;;;;28.63;94.17;100081.36;110007;1238;71554;-64
2023/08/30 07:14:30;;;;;;;11.70;8.20;;;;;;;28.76;93.38;100080.48;109986;1238;59683;-65
2023/08/30 07:16:59;;;;;;;10.80;8.20;;;;;;;28.72;94.19;100079.02;110042;1237;63250;-63
2023/08/30 07:19:28;;;;;;;11.90;9.00;;;;;;;28.73;94.28;100077.38;109988;1238;58129;-64
2023/08/30 07:21:57;;;;;;;12.00;9.00;;;;;;;28.81;93.85;100076.92;110046;1237;60598;-65
2023/08/30 07:24:25;;;;;;;15.50;8.90;;;;;;;28.92;92.31;100079.17;109961;1238;66029;-63
2023/08/30 07:26:54;;;;;;;12.00;8.00;;;;;;;29.02;91.75;100081.38;110007;1238;62314;-66
2023/08/30 07:29:23;;;;;;;10.20;7.80;;;;;;;29.23;91.31;100080.83;109946;1238;60072;-64
2023/08/30 07:31:53;;;;;;;13.50;7.50;;;;;;;29.41;91.62;100085.63;110053;1237;73830;-63
2023/08/30 07:34:22;;;;;;;10.20;7.20;;;;;;;29.20;92.81;100082.44;109959;1238;57725;-64
2023/08/30 07:36:55;;;;;;;10.50;7.50;;;;;;;29.13;93.63;100082.30;110078;1239;58196;-65
2023/08/30 07:39:24;;;;;;;10.30;7.30;;;;;;;28.79;96.58;100078.88;110088;1237;63444;-64
2023/08/30 07:41:53;;;;;;;13.80;8.90;;;;;;;28.61;98.97;100073.23;110062;1238;60634;-64
2023/08/30 07:44:22;;;;;;;12.30;8.30;;;;;;;28.46;99.89;100075.36;109865;1237;59190;-65
2023/08/30 07:46:51;;;;;;;10.10;8.50;;;;;;;28.33;100.00;100080.70;110047;1238;73877;-65
2023/08/30 07:49:19;;;;;;;13.80;9.10;;;;;;;28.25;100.00;100076.31;109983;1238;59745;-64
2023/08/30 07:51:48;;;;;;;9.80;8.00;;;;;;;28.09;100.00;100073.23;109900;1238;57786;-66
2023/08/30 07:54:17;;;;;;;13.20;8.50;;;;;;;27.96;100.00;100074.72;109917;1238;63006;-65
2023/08/30 07:56:48;;;;;;;10.80;8.10;;;;;;;27.77;100.00;100076.07;110057;1237;62364;-64
2023/08/30 07:59:17;;;;;;;11.70;8.90;;;;;;;27.60;100.00;100077.36;109707;1238;70223;-64
2023/08/30 08:01:46;;;;;;;13.50;9.40;;;;;;;27.51;100.00;100075.67;109987;1238;62646;-64
2023/08/30 08:04:15;;;;;;;13.00;9.40;;;;;;;27.43;100.00;100070.59;110047;1237;57771;-64
2023/08/30 08:06:43;;;;;;;13.30;10.00;;;;;;;27.59;100.00;100062.23;110012;1238;60937;-65
2023/08/30 08:09:24;;;;;;;11.00;8.60;;;;;;;27.71;100.00;100058.35;109982;1237;64266;-63
2023/08/30 08:11:53;;;;;;;11.00;9.40;;;;;;;27.75;100.00;100054.16;109793;1238;72066;-65
2023/08/30 08:14:24;;;;;;;11.10;9.50;;;;;;;27.68;100.00;100047.61;109806;1238;59645;-67
2023/08/30 08:16:53;;;;;;;15.30;9.70;;;;;;;27.77;100.00;100038.94;109845;1240;62260;-67
2023/08/30 08:19:22;;;;;;;11.20;9.10;;;;;;;27.85;100.00;100037.74;109639;1242;58215;-68
2023/08/30 08:21:54;;;;;;;13.70;9.30;;;;;;;28.12;100.00;100024.42;109806;1238;58188;-68
2023/08/30 08:24:24;;;;;;;14.50;9.60;;;;;;;28.09;100.00;100028.04;109831;1238;73000;-68
2023/08/30 08:26:53;;;;;;;13.70;9.20;;;;;;;28.28;100.00;100029.22;109933;1237;61478;-68
2023/08/30 08:29:22;;;;;;;14.90;10.50;;;;;;;28.25;100.00;100033.40;110020;1237;59763;-67
2023/08/30 08:31:51;;;;;;;16.50;11.00;;;;;;;28.56;100.00;100040.48;109688;1238;73044;-67
2023/08/30 08:34:20;;;;;;;14.70;10.80;;;;;;;28.67;100.00;100033.55;109848;1237;61591;-68
2023/08/30 08:36:52;;;;;;;15.50;10.50;;;;;;;29.04;100.00;100029.90;109906;1237;59839;-68
2023/08/30 08:39:21;;;;;;;14.20;9.60;;;;;;;29.29;98.88;100025.21;109840;1238;64827;-69
2023/08/30 08:41:52;;;;;;;13.20;9.60;;;;;;;29.47;98.25;100026.27;109928;1238;60737;-69
2023/08/30 08:44:26;;;;;;;18.20;9.80;;;;;;;29.53;94.93;100027.17;109921;1238;61162;-68
2023/08/30 08:46:55;;;;;;;13.20;9.70;;;;;;;29.55;94.27;100022.00;109981;1238;73886;-68
2023/08/30 08:49:28;;;;;;;13.50;9.60;;;;;;;30.03;91.03;100028.48;110005;1238;61507;-68
2023/08/30 08:51:57;;;;;;;10.70;8.90;;;;;;;30.54;89.02;100033.94;109783;1238;57830;-67
2023/08/30 08:54:27;;;;;;;11.60;8.60;;;;;;;30.79;86.72;100038.69;109638;1237;74430;-74
2023/08/30 08:56:57;;;;;;;11.80;8.60;;;;;;;31.04;86.01;100047.63;109873;1238;73038;-68
2023/08/30 08:59:26;;;;;;;14.70;9.00;;;;;;;30.66;88.00;100054.27;109759;1238;62129;-66
2023/08/30 09:01:55;;;;;;;11.70;9.40;;;;;;;30.42;89.09;100049.61;109568;1242;73686;-68
2023/08/30 09:04:25;;;;;;;12.10;8.80;;;;;;;30.06;91.25;100046.97;109766;1241;58325;-67
2023/08/30 09:06:54;;;;;;;10.20;8.00;;;;;;;29.78;92.66;100051.48;109672;1238;58276;-68
2023/08/30 09:09:24;;;;;;;13.90;9.20;;;;;;;29.50;94.32;100060.62;109831;1238;65544;-67
2023/08/30 09:11:53;;;;;;;13.90;8.70;;;;;;;29.19;96.01;100055.00;109787;1238;62243;-68
2023/08/30 09:14:22;;;;;;;12.20;8.20;;;;;;;29.07;97.14;100051.88;109810;1237;60050;-68
2023/08/30 09:17:02;;;;;;;14.70;9.90;;;;;;;28.94;98.44;100046.48;109892;1238;62427;-66
2023/08/30 09:19:31;;;;;;;12.40;8.90;;;;;;;28.84;99.43;100049.34;109634;1239;58341;-67
2023/08/30 09:22:00;;;;;;;13.30;8.40;;;;;;;28.78;99.71;100053.92;109862;1237;57671;-66
2023/08/30 09:24:39;;;;;;;17.40;10.00;;;;;;;28.56;100.00;100065.66;109853;1238;63733;-66
2023/08/30 09:27:08;;;;;;;14.40;10.50;;;;;;;28.25;100.00;100082.16;109608;1238;61525;-67
2023/08/30 09:29:37;;;;;;;14.00;10.20;;;;;;;28.07;100.00;100095.04;109891;1237;59235;-66
2023/08/30 09:32:08;;;;;;;24.60;7.70;;;;;;;27.62;100.00;100125.42;109802;1239;65106;-65
2023/08/30 09:34:45;;;;;;;16.10;5.90;;;;;;;26.86;97.60;100114.98;109851;1238;61843;-73
2023/08/30 09:37:22;;;;;;;12.00;3.50;;;;;;;26.02;91.35;100146.42;109826;1237;58243;-66
2023/08/30 09:39:51;;;;;;;13.30;3.40;;;;;;;24.77;90.97;100189.34;109866;1237;74321;-65
2023/08/30 09:42:20;;;;;;;15.20;2.90;;;;;;;23.86;95.19;100170.84;109739;1237;60680;-65
2023/08/30 09:44:51;;;;;;;8.00;2.80;;;;;;;23.21;97.83;100167.06;109880;1238;69665;-64
2023/08/30 09:47:19;;;;;;;4.00;2.20;;;;;;;22.56;99.42;100173.14;109767;1238;74283;-65
2023/08/30 09:49:51;;;;;;;7.70;2.30;;;;;;;22.19;100.00;100145.58;109881;1238;60710;-71
2023/08/30 09:52:24;;;;;;;7.10;2.30;;;;;;;21.79;100.00;100133.66;109783;1237;60860;-70
2023/08/30 09:54:54;;;;;;;6.10;2.30;;;;;;;21.61;100.00;100130.46;109552;1237;63906;-70
2023/08/30 09:57:24;;;;;;;12.80;2.20;;;;;;;21.45;100.00;100156.86;109789;1238;61930;-76
2023/08/30 09:59:55;;;;;;;10.50;2.30;;;;;;;20.61;100.00;100180.92;109927;1237;69645;-70
2023/08/30 10:02:24;;;;;;;7.20;2.50;;;;;;;19.20;100.00;100184.20;109981;1239;72759;-71
2023/08/30 10:04:54;;;;;;;8.30;3.10;;;;;;;18.40;100.00;100214.52;110013;1238;62559;-71
2023/08/30 10:07:23;;;;;;;8.40;3.60;;;;;;;18.00;100.00;100224.92;110098;1237;61016;-74
2023/08/30 10:09:53;;;;;;;7.40;3.60;;;;;;;17.69;100.00;100241.57;109886;1237;65699;-72
2023/08/30 10:12:46;;;;;;;7.40;3.80;;;;;;;17.49;100.00;100275.23;110074;1237;71400;-73
2023/08/30 10:15:31;;;;;;;7.50;3.70;;;;;;;17.37;100.00;100277.60;110098;1238;59882;-72
2023/08/30 10:18:02;;;;;;;8.20;3.80;;;;;;;17.37;100.00;100281.33;110021;1237;63185;-71
2023/08/30 10:20:32;;;;;;;9.00;4.80;;;;;;;17.32;100.00;100284.73;110018;1239;62684;-71
2023/08/30 10:23:04;;;;;;;8.50;4.70;;;;;;;17.40;100.00;100249.78;109924;1237;61549;-70
2023/08/30 10:25:34;;;;;;;9.30;3.90;;;;;;;17.43;100.00;100222.19;109880;1238;74294;-72
2023/08/30 10:28:04;;;;;;;11.70;4.70;;;;;;;17.38;100.00;100231.00;109965;1238;71815;-74
2023/08/30 10:30:33;;;;;;;12.60;5.30;;;;;;;17.33;100.00;100233.71;109951;1238;60406;-70
2023/08/30 10:33:03;;;;;;;9.10;4.60;;;;;;;17.34;100.00;100212.30;109968;1238;62794;-68
2023/08/30 10:35:32;;;;;;;8.10;4.90;;;;;;;17.36;100.00;100215.07;109962;1237;62133;-68
2023/08/30 10:38:00;;;;;;;10.40;5.60;;;;;;;17.36;100.00;100236.02;110032;1237;61732;-68
2023/08/30 10:40:29;;;;;;;34.70;10.40;;;;;;;17.48;100.00;100250.96;110046;1238;65597;-69
2023/08/30 10:43:00;;;;;;;7.50;4.40;;;;;;;17.64;100.00;100266.89;110047;1239;61533;-79
2023/08/30 10:45:29;;;;;;;8.70;4.50;;;;;;;17.80;100.00;100281.63;109852;1238;70452;-62
2023/08/30 10:48:00;;;;;;;9.00;4.70;;;;;;;17.76;100.00;100308.24;109991;1237;73368;-62
2023/08/30 10:50:32;;;;;;;7.90;4.90;;;;;;;17.65;100.00;100311.40;109922;1238;61628;-64
2023/08/30 10:53:01;;;;;;;29.80;7.90;;;;;;;17.71;100.00;100328.38;109693;1237;60998;-63
2023/08/30 10:55:29;;;;;;;26.50;9.50;;;;;;;18.55;100.00;100354.21;109723;1237;73598;-61
2023/08/30 10:58:06;;;;;;;18.80;7.90;;;;;;;18.71;100.00;100376.03;109839;1237;62345;-62
2023/08/30 11:00:39;;;;;;;22.10;7.90;;;;;;;18.54;100.00;100380.77;109870;1238;59958;-63
2023/08/30 11:03:11;;;;;;;13.40;6.60;;;;;;;18.66;100.00;100381.05;109753;1237;73668;-63
2023/08/30 11:05:41;;;;;;;10.00;5.80;;;;;;;18.62;100.00;100372.56;109849;1239;57789;-64
2023/08/30 11:08:11;;;;;;;9.70;5.10;;;;;;;18.48;100.00;100348.42;109814;1237;57803;-66
2023/08/30 11:10:42;;;;;;;7.80;4.30;;;;;;;18.41;100.00;100323.52;109698;1238;63640;-64
2023/08/30 11:13:15;;;;;;;9.80;4.60;;;;;;;18.35;100.00;100329.41;109821;1241;61615;-62
2023/08/30 11:15:44;;;;;;;7.80;4.30;;;;;;;18.52;100.00;100337.89;109710;1237;71026;-63